Time;durP1;ratioP1;P1;durP2;ratioP2;P2;SDS_P1;SDS_P2;PMS_P1;PMS_P2;Temp;Humidity;BMP_temperature;BMP_pressure;BME280_temperature;BME280_humidity;BME280_pressure;Samples;Min_cycle;Max_cycle;Signal;HPM_P1;HPM_P2
2023/08/14 00:01:40;;;;;;;10.23;7.50;;;;;;;16.38;100.00;101414.09;5045360;28;20032;-71
2023/08/14 00:04:06;;;;;;;10.98;7.50;;;;;;;16.31;100.00;101418.19;5041281;28;20033;-71
2023/08/14 00:06:31;;;;;;;9.13;7.78;;;;;;;16.29;100.00;101407.50;5040345;28;20028;-70
2023/08/14 00:08:57;;;;;;;8.90;7.43;;;;;;;16.30;100.00;101405.69;5039529;28;20020;-70
2023/08/14 00:11:22;;;;;;;9.43;7.30;;;;;;;16.30;100.00;101411.94;5036045;28;20025;-71
2023/08/14 00:13:55;;;;;;;8.40;7.20;;;;;;;16.22;100.00;101411.59;5041919;28;20024;-70
2023/08/14 00:16:21;;;;;;;8.65;7.50;;;;;;;16.24;100.00;101423.06;5039894;28;20037;-70
2023/08/14 00:18:47;;;;;;;9.57;7.25;;;;;;;16.15;100.00;101399.50;5040207;28;20035;-71
2023/08/14 00:21:13;;;;;;;9.48;7.65;;;;;;;16.13;100.00;101412.16;5038691;28;20025;-70
2023/08/14 00:23:39;;;;;;;8.65;7.13;;;;;;;16.10;100.00;101399.81;5034613;28;20037;-70
2023/08/14 00:26:05;;;;;;;9.02;7.50;;;;;;;16.08;100.00;101407.09;5042726;28;20048;-70
2023/08/14 00:28:31;;;;;;;8.05;6.97;;;;;;;16.03;100.00;101401.16;5034919;28;20542;-71
2023/08/14 00:30:56;;;;;;;11.45;7.10;;;;;;;15.96;100.00;101398.97;5039287;28;20052;-71
2023/08/14 00:33:21;;;;;;;9.25;7.07;;;;;;;15.98;100.00;101392.56;5040612;28;20032;-71
2023/08/14 00:35:47;;;;;;;11.52;8.32;;;;;;;15.99;100.00;101388.03;5035375;28;20029;-71
2023/08/14 00:38:12;;;;;;;9.75;7.30;;;;;;;15.99;100.00;101388.03;5058241;28;20159;-71
2023/08/14 00:40:39;;;;;;;8.75;6.85;;;;;;;15.96;100.00;101394.47;5038475;28;20100;-71
2023/08/14 00:43:04;;;;;;;9.25;6.78;;;;;;;15.90;100.00;101390.38;5043839;28;20039;-71
2023/08/14 00:45:30;;;;;;;11.43;7.80;;;;;;;15.90;100.00;101393.03;5035045;28;20021;-69
2023/08/14 00:47:56;;;;;;;10.63;7.70;;;;;;;15.89;100.00;101393.16;5041356;28;20037;-70
2023/08/14 00:50:22;;;;;;;10.10;7.13;;;;;;;15.84;100.00;101390.78;5035649;28;20060;-70
2023/08/14 00:52:54;;;;;;;7.97;6.82;;;;;;;15.82;100.00;101390.00;5048659;28;20059;-69
2023/08/14 00:55:22;;;;;;;10.63;7.65;;;;;;;15.84;100.00;101395.25;5038302;28;20032;-70
2023/08/14 00:57:51;;;;;;;10.02;7.20;;;;;;;15.83;100.00;101383.66;5037619;28;20029;-70
2023/08/14 01:00:16;;;;;;;8.05;7.30;;;;;;;15.83;100.00;101386.34;5039254;28;20025;-70
2023/08/14 01:02:43;;;;;;;9.10;7.47;;;;;;;15.82;100.00;101386.44;5038391;28;20032;-70
2023/08/14 01:05:09;;;;;;;8.73;7.13;;;;;;;15.78;100.00;101387.59;5042858;28;20132;-70
2023/08/14 01:07:35;;;;;;;12.43;7.60;;;;;;;15.74;100.00;101372.66;5036986;28;20099;-70
2023/08/14 01:10:02;;;;;;;9.43;7.57;;;;;;;15.75;100.00;101380.59;5037422;28;20149;-70
2023/08/14 01:12:37;;;;;;;8.95;7.72;;;;;;;15.70;100.00;101363.94;5040738;28;20025;-70
2023/08/14 01:15:09;;;;;;;11.52;8.15;;;;;;;15.72;100.00;101374.56;5037797;28;20078;-70
2023/08/14 01:17:35;;;;;;;12.50;7.68;;;;;;;15.78;100.00;101375.03;5052218;28;20091;-70
2023/08/14 01:20:03;;;;;;;10.00;8.23;;;;;;;15.71;100.00;101367.47;5042013;28;20535;-70
2023/08/14 01:23:06;;;;;;;11.23;7.88;;;;;;;15.73;100.00;101376.31;5038038;28;20045;-71
2023/08/14 01:25:33;;;;;;;9.02;7.43;;;;;;;15.68;100.00;101374.78;5042099;28;20296;-71
2023/08/14 01:28:01;;;;;;;8.45;7.47;;;;;;;15.66;100.00;101375.81;5040336;28;20792;-70
2023/08/14 01:30:27;;;;;;;8.98;8.07;;;;;;;15.62;100.00;101368.91;5040330;28;20080;-70
2023/08/14 01:32:53;;;;;;;8.85;7.78;;;;;;;15.59;100.00;101369.09;5047952;28;20028;-69
2023/08/14 01:35:22;;;;;;;11.05;7.82;;;;;;;15.55;100.00;101364.88;5037278;28;20032;-69
2023/08/14 01:37:59;;;;;;;10.52;7.68;;;;;;;15.53;100.00;101358.75;5050322;28;20041;-69
2023/08/14 01:40:40;;;;;;;11.57;7.78;;;;;;;15.48;100.00;101356.38;5034687;28;20296;-69
2023/08/14 01:43:12;;;;;;;8.70;7.10;;;;;;;15.44;100.00;101361.06;5037606;28;20025;-70
2023/08/14 01:45:40;;;;;;;9.25;7.30;;;;;;;15.44;100.00;101358.38;5032377;28;20052;-70
2023/08/14 01:48:08;;;;;;;9.18;7.60;;;;;;;15.44;100.00;101344.09;5041167;28;20096;-70
2023/08/14 01:50:34;;;;;;;11.18;7.75;;;;;;;15.46;100.00;101344.84;5048434;28;20053;-70
2023/08/14 01:53:00;;;;;;;9.10;7.55;;;;;;;15.41;100.00;101341.59;5034776;28;20300;-71
2023/08/14 01:55:25;;;;;;;9.40;7.78;;;;;;;15.37;100.00;101324.84;5031453;28;20029;-70
2023/08/14 01:57:52;;;;;;;10.98;6.72;;;;;;;15.36;100.00;101343.72;5038610;28;20348;-70
2023/08/14 02:00:17;;;;;;;8.27;7.50;;;;;;;15.32;100.00;101331.47;5039209;28;20088;-70
2023/08/14 02:02:43;;;;;;;8.38;7.53;;;;;;;15.29;100.00;101324.47;5038005;28;20139;-70
2023/08/14 02:05:08;;;;;;;9.38;7.38;;;;;;;15.24;100.00;101331.94;5039354;28;20032;-69
2023/08/14 02:07:34;;;;;;;9.55;7.07;;;;;;;15.24;100.00;101323.03;5035104;28;20036;-70
2023/08/14 02:09:59;;;;;;;8.57;7.68;;;;;;;15.23;100.00;101324.00;5042849;28;20029;-71
2023/08/14 02:12:24;;;;;;;8.00;7.18;;;;;;;15.16;100.00;101320.84;5036479;28;20210;-70
2023/08/14 02:14:50;;;;;;;10.25;7.65;;;;;;;15.20;100.00;101317.00;5046559;28;20074;-70
2023/08/14 02:17:15;;;;;;;8.43;6.90;;;;;;;15.12;100.00;101308.56;5033207;28;20404;-70
2023/08/14 02:19:40;;;;;;;7.60;6.40;;;;;;;15.10;100.00;101303.31;5039292;28;20067;-70
2023/08/14 02:22:06;;;;;;;10.88;6.82;;;;;;;15.06;100.00;101303.63;5043441;28;20040;-70
2023/08/14 02:24:32;;;;;;;11.45;7.50;;;;;;;15.07;100.00;101318.72;5063360;28;20025;-70
2023/08/14 02:26:57;;;;;;;9.63;6.93;;;;;;;15.02;100.00;101315.47;5043741;28;20033;-70
2023/08/14 02:29:22;;;;;;;8.25;6.97;;;;;;;15.03;100.00;101314.50;5036761;28;20020;-70
2023/08/14 02:31:50;;;;;;;7.82;7.03;;;;;;;14.92;100.00;101307.13;5039345;28;20021;-70
2023/08/14 02:34:32;;;;;;;8.38;7.22;;;;;;;14.96;100.00;101303.28;5040760;28;20035;-69
2023/08/14 02:36:58;;;;;;;8.45;7.20;;;;;;;14.86;100.00;101305.69;5041094;28;20033;-69
2023/08/14 02:39:23;;;;;;;8.85;7.38;;;;;;;14.86;100.00;101304.84;5033432;28;20028;-69
2023/08/14 02:41:48;;;;;;;9.25;7.18;;;;;;;14.87;100.00;101303.88;5039444;28;20509;-70
2023/08/14 02:44:14;;;;;;;7.40;6.50;;;;;;;14.84;100.00;101306.72;5043769;28;20052;-70
2023/08/14 02:46:39;;;;;;;9.55;7.18;;;;;;;14.80;100.00;101302.53;5042540;28;20021;-70
2023/08/14 02:49:04;;;;;;;9.75;7.28;;;;;;;14.81;100.00;101306.94;5041626;28;20057;-69
2023/08/14 02:51:30;;;;;;;8.65;7.63;;;;;;;14.77;100.00;101311.63;5039442;28;20262;-70
2023/08/14 02:53:55;;;;;;;9.05;7.78;;;;;;;14.75;100.00;101318.88;5048606;28;20032;-70
2023/08/14 02:56:20;;;;;;;9.02;7.45;;;;;;;14.71;100.00;101320.00;5047731;28;20120;-69
2023/08/14 02:58:46;;;;;;;9.13;7.38;;;;;;;14.71;100.00;101328.06;5041854;28;20043;-70
2023/08/14 03:01:11;;;;;;;9.45;7.57;;;;;;;14.66;100.00;101325.66;5046961;28;20486;-70
2023/08/14 03:03:36;;;;;;;8.35;7.28;;;;;;;14.67;100.00;101319.38;5047257;28;20029;-70
2023/08/14 03:06:02;;;;;;;9.57;7.63;;;;;;;14.64;100.00;101324.03;5039819;28;20483;-71
2023/08/14 03:08:28;;;;;;;8.15;7.30;;;;;;;14.58;100.00;101321.72;5040449;28;20028;-71
2023/08/14 03:10:53;;;;;;;8.15;7.20;;;;;;;14.58;100.00;101327.06;5041505;28;20029;-71
2023/08/14 03:13:18;;;;;;;7.82;7.13;;;;;;;14.52;100.00;101314.06;5054275;28;20029;-70
2023/08/14 03:15:44;;;;;;;8.77;7.53;;;;;;;14.47;100.00;101310.78;5045158;28;20494;-71
2023/08/14 03:18:09;;;;;;;12.88;8.43;;;;;;;14.43;100.00;101313.63;5044274;28;20026;-70
2023/08/14 03:20:34;;;;;;;10.60;7.68;;;;;;;14.43;100.00;101308.28;5040099;28;20520;-71
2023/08/14 03:23:00;;;;;;;9.52;7.75;;;;;;;14.42;100.00;101311.91;5045519;28;20297;-71
2023/08/14 03:25:25;;;;;;;10.80;7.70;;;;;;;14.44;100.00;101309.97;5039478;28;20030;-71
2023/08/14 03:27:51;;;;;;;8.77;7.95;;;;;;;14.42;100.00;101317.25;5039303;28;20025;-69
2023/08/14 03:30:16;;;;;;;8.52;7.65;;;;;;;14.45;100.00;101316.19;5039183;28;20282;-70
2023/08/14 03:32:42;;;;;;;10.95;7.85;;;;;;;14.43;100.00;101302.91;5042911;28;20028;-70
2023/08/14 03:35:08;;;;;;;10.77;8.02;;;;;;;14.42;100.00;101300.31;5045464;28;20480;-69
2023/08/14 03:37:34;;;;;;;9.48;8.18;;;;;;;14.43;100.00;101296.69;5046371;28;20013;-70
2023/08/14 03:39:59;;;;;;;11.10;7.70;;;;;;;14.44;100.00;101301.94;5047501;28;20255;-69
2023/08/14 03:42:25;;;;;;;9.90;7.97;;;;;;;14.43;100.00;101307.41;5042180;28;20514;-70
2023/08/14 03:44:50;;;;;;;9.85;7.28;;;;;;;14.39;100.00;101312.09;5043769;28;20025;-69
2023/08/14 03:47:15;;;;;;;8.60;7.75;;;;;;;14.38;100.00;101313.03;5039045;28;20554;-70
2023/08/14 03:49:41;;;;;;;9.55;7.50;;;;;;;14.37;100.00;101307.75;5046713;28;20079;-70
2023/08/14 03:52:07;;;;;;;10.98;7.70;;;;;;;14.34;100.00;101316.84;5040297;28;20033;-70
2023/08/14 03:54:32;;;;;;;9.27;7.93;;;;;;;14.26;100.00;101311.09;5052345;28;20028;-70
2023/08/14 03:56:58;;;;;;;8.68;7.68;;;;;;;14.31;100.00;101317.03;5039432;28;20112;-70
2023/08/14 03:59:23;;;;;;;9.27;7.38;;;;;;;14.26;100.00;101302.19;5039418;28;20037;-70
2023/08/14 04:01:49;;;;;;;8.30;7.50;;;;;;;14.24;100.00;101304.94;5037079;28;20039;-70
2023/08/14 04:04:14;;;;;;;8.60;7.70;;;;;;;14.25;100.00;101300.44;5043753;28;20462;-70
2023/08/14 04:06:40;;;;;;;9.23;6.65;;;;;;;14.20;100.00;101298.91;5043242;28;20032;-70
2023/08/14 04:09:05;;;;;;;12.70;8.07;;;;;;;14.18;100.00;101303.50;5045268;28;20023;-70
2023/08/14 04:11:32;;;;;;;7.75;6.82;;;;;;;14.19;100.00;101296.31;5035685;28;20487;-70
2023/08/14 04:13:58;;;;;;;8.18;7.15;;;;;;;14.18;100.00;101299.97;5049743;28;20032;-70
2023/08/14 04:16:40;;;;;;;8.75;6.68;;;;;;;14.17;100.00;101292.84;5039898;28;20470;-70
2023/08/14 04:19:06;;;;;;;8.93;8.02;;;;;;;14.16;100.00;101280.44;5041206;28;20108;-69
2023/08/14 04:21:32;;;;;;;9.13;7.53;;;;;;;14.18;100.00;101286.56;5045381;28;20085;-69
2023/08/14 04:23:57;;;;;;;8.80;7.60;;;;;;;14.20;100.00;101279.31;5052968;28;20455;-70
2023/08/14 04:26:22;;;;;;;9.27;7.63;;;;;;;14.19;100.00;101282.94;5047928;28;20342;-69
2023/08/14 04:28:48;;;;;;;8.55;7.18;;;;;;;14.21;100.00;101286.38;5033293;28;20537;-70
2023/08/14 04:31:13;;;;;;;9.07;7.63;;;;;;;14.16;100.00;101278.63;5042354;28;20039;-70
2023/08/14 04:33:39;;;;;;;8.15;7.35;;;;;;;14.23;100.00;101280.94;5047683;28;20040;-71
2023/08/14 04:36:04;;;;;;;9.48;8.10;;;;;;;14.24;100.00;101274.63;5031430;28;20029;-71
2023/08/14 04:38:30;;;;;;;9.38;7.72;;;;;;;14.23;100.00;101276.44;5042937;28;20037;-71
2023/08/14 04:40:55;;;;;;;8.52;7.63;;;;;;;14.31;100.00;101267.97;5041349;28;20040;-70
2023/08/14 04:43:20;;;;;;;8.50;7.68;;;;;;;14.32;100.00;101257.16;5040426;28;20266;-70
2023/08/14 04:45:46;;;;;;;9.02;7.95;;;;;;;14.32;100.00;101264.31;5034337;28;20017;-71
2023/08/14 04:48:14;;;;;;;8.80;7.88;;;;;;;14.34;100.00;101268.66;5044020;28;20090;-71
2023/08/14 04:50:39;;;;;;;9.63;8.02;;;;;;;14.38;100.00;101254.13;5035342;28;20052;-70
2023/08/14 04:53:05;;;;;;;8.80;7.60;;;;;;;14.42;100.00;101255.66;5033473;28;20032;-70
2023/08/14 04:55:30;;;;;;;8.10;7.28;;;;;;;14.41;100.00;101251.25;5037798;28;20068;-69
2023/08/14 04:57:55;;;;;;;8.65;7.75;;;;;;;14.51;100.00;101248.91;5039995;28;20398;-70
2023/08/14 05:00:21;;;;;;;9.05;8.05;;;;;;;14.54;100.00;101239.81;5038870;28;20029;-70
2023/08/14 05:02:46;;;;;;;9.07;8.18;;;;;;;14.56;100.00;101238.78;5036722;28;20035;-69
2023/08/14 05:05:15;;;;;;;10.88;7.95;;;;;;;14.64;100.00;101246.34;5036697;28;20415;-69
2023/08/14 05:07:40;;;;;;;9.10;8.20;;;;;;;14.70;100.00;101245.97;5036493;28;20013;-70
2023/08/14 05:10:06;;;;;;;10.90;7.97;;;;;;;14.76;100.00;101244.75;5037423;28;20459;-70
2023/08/14 05:12:32;;;;;;;10.77;8.70;;;;;;;14.77;100.00;101239.28;5036786;28;20049;-70
2023/08/14 05:14:57;;;;;;;9.30;8.32;;;;;;;14.84;100.00;101239.72;5036282;28;20033;-71
2023/08/14 05:17:23;;;;;;;10.43;8.43;;;;;;;14.87;100.00;101235.03;5030433;28;20079;-71
2023/08/14 05:19:49;;;;;;;9.10;8.20;;;;;;;14.96;100.00;101233.59;5036327;28;20040;-70
2023/08/14 05:22:15;;;;;;;11.38;8.90;;;;;;;14.94;100.00;101228.34;5039022;28;20036;-70
2023/08/14 05:24:41;;;;;;;9.60;8.70;;;;;;;15.05;100.00;101234.84;5040626;28;20468;-70
2023/08/14 05:27:06;;;;;;;9.18;8.07;;;;;;;15.13;100.00;101233.44;5032903;28;20108;-70
2023/08/14 05:29:31;;;;;;;9.65;7.97;;;;;;;15.25;100.00;101237.13;5039652;28;20485;-70
2023/08/14 05:31:57;;;;;;;10.13;7.82;;;;;;;15.44;100.00;101243.03;5035458;28;20039;-70
2023/08/14 05:34:23;;;;;;;9.02;8.07;;;;;;;15.56;100.00;101246.75;5034035;28;20028;-71
2023/08/14 05:36:48;;;;;;;10.23;8.88;;;;;;;15.66;100.00;101242.50;5038119;28;20021;-69
2023/08/14 05:39:13;;;;;;;11.02;9.00;;;;;;;15.75;100.00;101242.88;5037518;28;20055;-69
2023/08/14 05:41:39;;;;;;;12.10;9.02;;;;;;;15.83;100.00;101249.44;5034845;28;20036;-70
2023/08/14 05:44:05;;;;;;;9.82;8.77;;;;;;;15.91;100.00;101249.81;5037107;28;20426;-69
2023/08/14 05:46:30;;;;;;;11.35;9.90;;;;;;;16.01;100.00;101260.81;5037818;28;20032;-70
2023/08/14 05:48:56;;;;;;;13.35;9.52;;;;;;;16.06;100.00;101255.13;5030810;28;20025;-69
2023/08/14 05:51:21;;;;;;;12.05;9.80;;;;;;;16.11;100.00;101272.63;5035091;28;20506;-69
2023/08/14 05:53:46;;;;;;;10.48;9.32;;;;;;;16.10;100.00;101270.94;5037374;28;20484;-68
2023/08/14 05:56:12;;;;;;;13.57;9.98;;;;;;;16.07;100.00;101270.25;5045609;28;20029;-69
2023/08/14 05:58:37;;;;;;;10.32;9.32;;;;;;;16.07;100.00;101278.31;5041998;28;20025;-70
2023/08/14 06:01:03;;;;;;;11.13;9.23;;;;;;;16.10;100.00;101284.34;5037857;28;20592;-69
2023/08/14 06:03:28;;;;;;;11.00;9.50;;;;;;;16.11;100.00;101278.00;5030773;28;20044;-70
2023/08/14 06:05:54;;;;;;;10.48;9.35;;;;;;;16.12;100.00;101277.03;5039072;28;20131;-70
2023/08/14 06:08:19;;;;;;;13.95;9.18;;;;;;;16.16;100.00;101277.69;5038570;28;20495;-69
2023/08/14 06:10:45;;;;;;;10.85;9.63;;;;;;;16.15;100.00;101282.22;5039974;28;20179;-69
2023/08/14 06:13:10;;;;;;;11.27;9.90;;;;;;;16.16;100.00;101286.59;5039223;28;20017;-71
2023/08/14 06:15:36;;;;;;;14.15;9.63;;;;;;;16.11;100.00;101290.56;5038162;28;20027;-70
2023/08/14 06:18:02;;;;;;;16.30;10.30;;;;;;;16.10;100.00;101289.72;5039211;28;20033;-70
2023/08/14 06:20:27;;;;;;;11.48;9.60;;;;;;;16.06;100.00;101288.19;5041365;28;20559;-70
2023/08/14 06:22:53;;;;;;;11.50;10.30;;;;;;;16.00;100.00;101287.72;5041611;28;20601;-70
2023/08/14 06:25:20;;;;;;;11.30;10.07;;;;;;;15.97;100.00;101282.56;5036967;28;20430;-70
2023/08/14 06:27:46;;;;;;;15.70;11.32;;;;;;;15.93;100.00;101285.47;5049022;28;20028;-70
2023/08/14 06:30:12;;;;;;;12.38;10.90;;;;;;;15.92;100.00;101278.34;5042340;28;20032;-69
2023/08/14 06:32:38;;;;;;;13.07;10.80;;;;;;;15.91;100.00;101268.59;5043601;28;20024;-69
2023/08/14 06:35:05;;;;;;;12.85;11.15;;;;;;;15.98;100.00;101276.25;5047321;28;20137;-70
2023/08/14 06:37:32;;;;;;;13.98;11.02;;;;;;;16.09;100.00;101273.69;5040936;28;20036;-70
2023/08/14 06:39:57;;;;;;;13.45;12.05;;;;;;;16.37;100.00;101265.50;5038633;28;20589;-71
2023/08/14 06:42:23;;;;;;;15.15;11.75;;;;;;;16.96;100.00;101261.47;5039816;28;20147;-70
2023/08/14 06:44:48;;;;;;;11.55;10.10;;;;;;;17.53;100.00;101267.16;5041282;28;20081;-68
2023/08/14 06:47:14;;;;;;;12.88;9.63;;;;;;;18.06;100.00;101266.88;5045770;28;20028;-69
2023/08/14 06:49:39;;;;;;;10.32;8.75;;;;;;;18.32;100.00;101267.59;5046234;28;20127;-70
2023/08/14 06:52:05;;;;;;;10.63;8.70;;;;;;;18.65;100.00;101266.81;5039699;28;20142;-71
2023/08/14 06:54:30;;;;;;;12.38;8.68;;;;;;;18.84;100.00;101271.63;5043591;28;20475;-70
2023/08/14 06:56:56;;;;;;;8.48;7.35;;;;;;;19.05;100.00;101267.22;5042604;28;20021;-71
2023/08/14 06:59:21;;;;;;;9.13;7.10;;;;;;;19.31;100.00;101258.88;5041873;28;20495;-70
2023/08/14 07:01:47;;;;;;;10.93;6.90;;;;;;;19.35;96.64;101261.22;5041324;28;20040;-69
2023/08/14 07:04:12;;;;;;;10.63;7.40;;;;;;;20.09;97.97;101263.25;5052629;28;20029;-69
2023/08/14 07:06:38;;;;;;;8.00;6.30;;;;;;;20.27;94.15;101258.97;5036877;28;20013;-69
2023/08/14 07:09:04;;;;;;;10.32;6.10;;;;;;;20.49;92.03;101258.06;5042772;28;20102;-69
2023/08/14 07:11:36;;;;;;;8.77;5.88;;;;;;;21.05;88.85;101257.63;5038731;28;20037;-70
2023/08/14 07:14:02;;;;;;;7.00;5.20;;;;;;;21.21;87.71;101259.00;5033237;28;20028;-69
2023/08/14 07:16:27;;;;;;;11.68;5.82;;;;;;;21.00;85.68;101261.75;5031825;28;20025;-70
2023/08/14 07:18:53;;;;;;;7.88;5.80;;;;;;;20.74;85.83;101261.34;5040813;28;20105;-70
2023/08/14 07:21:18;;;;;;;7.18;5.35;;;;;;;20.84;86.68;101260.38;5042148;28;20032;-69
2023/08/14 07:23:44;;;;;;;6.88;5.25;;;;;;;21.00;84.70;101248.22;5042631;28;20079;-69
2023/08/14 07:26:12;;;;;;;7.05;5.60;;;;;;;20.87;84.90;101256.56;5047276;28;20475;-70
2023/08/14 07:28:39;;;;;;;9.27;5.90;;;;;;;20.74;85.86;101261.34;5055734;28;20025;-70
2023/08/14 07:31:05;;;;;;;10.48;5.78;;;;;;;20.61;87.21;101261.56;5036771;28;20120;-69
2023/08/14 07:33:30;;;;;;;8.20;5.35;;;;;;;20.48;89.55;101272.53;5046407;28;20250;-70
2023/08/14 07:35:57;;;;;;;7.28;5.00;;;;;;;20.86;89.10;101277.38;5047514;28;20039;-69
2023/08/14 07:38:23;;;;;;;7.05;5.00;;;;;;;21.47;85.92;101289.19;5039667;28;20021;-70
2023/08/14 07:40:48;;;;;;;6.00;4.32;;;;;;;22.16;83.78;101288.34;5036830;28;20083;-69
2023/08/14 07:43:14;;;;;;;6.85;4.70;;;;;;;22.23;80.10;101287.59;5040637;28;20112;-69
2023/08/14 07:45:39;;;;;;;6.63;4.60;;;;;;;22.04;81.37;101291.16;5040120;28;20112;-70
2023/08/14 07:48:05;;;;;;;8.32;5.35;;;;;;;21.88;83.70;101282.72;5039539;28;20529;-70
2023/08/14 07:50:30;;;;;;;6.78;4.30;;;;;;;22.65;81.87;101278.28;5045934;28;20152;-69
2023/08/14 07:52:55;;;;;;;8.20;4.78;;;;;;;23.51;73.80;101270.84;5041695;28;20036;-69
2023/08/14 07:55:21;;;;;;;8.93;4.50;;;;;;;24.41;73.10;101275.38;5038860;28;20029;-71
2023/08/14 07:57:46;;;;;;;5.50;4.40;;;;;;;24.96;68.55;101272.38;5037680;28;20099;-69
2023/08/14 08:00:15;;;;;;;5.72;4.30;;;;;;;25.49;63.25;101278.59;5043190;28;20450;-69
2023/08/14 08:02:41;;;;;;;7.10;4.20;;;;;;;26.00;62.22;101290.34;5038209;28;20502;-70
2023/08/14 08:05:07;;;;;;;6.07;4.18;;;;;;;26.66;61.32;101292.13;5040233;28;20124;-71
2023/08/14 08:07:32;;;;;;;6.80;3.80;;;;;;;27.42;57.62;101289.91;5035117;28;20329;-70
2023/08/14 08:09:58;;;;;;;7.22;3.45;;;;;;;27.77;53.83;101283.09;5041628;28;20379;-70
2023/08/14 08:12:23;;;;;;;7.35;3.28;;;;;;;27.65;52.83;101284.50;5037676;28;20174;-71
2023/08/14 08:14:48;;;;;;;4.95;3.00;;;;;;;27.95;53.23;101285.56;5046005;28;20243;-70
2023/08/14 08:17:14;;;;;;;4.47;2.88;;;;;;;28.38;51.60;101281.31;5034921;28;20032;-67
2023/08/14 08:19:39;;;;;;;6.13;3.00;;;;;;;28.68;50.37;101287.72;5041503;28;20028;-70
2023/08/14 08:22:04;;;;;;;5.72;2.75;;;;;;;28.92;49.10;101283.03;5037011;28;20172;-70
2023/08/14 08:24:30;;;;;;;5.40;2.45;;;;;;;29.20;47.95;101272.31;5038794;28;20028;-70
2023/08/14 08:26:55;;;;;;;4.72;2.60;;;;;;;29.52;45.54;101263.66;5039659;28;20041;-71
2023/08/14 08:29:21;;;;;;;5.75;2.58;;;;;;;29.68;45.38;101269.97;5040840;28;20021;-70
2023/08/14 08:31:46;;;;;;;3.72;1.90;;;;;;;29.62;43.81;101266.13;5036545;28;20249;-70
2023/08/14 08:34:11;;;;;;;3.60;1.83;;;;;;;29.98;44.67;101270.75;5037730;28;20048;-70
2023/08/14 08:36:36;;;;;;;4.93;2.00;;;;;;;29.99;43.96;101261.47;5037752;28;20059;-70
2023/08/14 08:39:02;;;;;;;4.80;1.85;;;;;;;30.11;43.81;101265.41;5039318;28;20115;-69
2023/08/14 08:41:34;;;;;;;3.90;2.13;;;;;;;30.82;43.94;101265.41;5039760;28;20037;-70
2023/08/14 08:44:05;;;;;;;4.07;1.90;;;;;;;31.13;42.33;101258.63;5036350;28;20030;-70
2023/08/14 08:46:47;;;;;;;3.63;1.77;;;;;;;31.79;41.82;101258.91;5054714;28;20036;-70
2023/08/14 08:49:16;;;;;;;5.68;2.20;;;;;;;32.65;39.55;101269.25;5041095;28;20535;-69
2023/08/14 08:51:44;;;;;;;4.22;1.75;;;;;;;33.07;38.54;101267.06;5042308;28;20472;-69
2023/08/14 08:54:09;;;;;;;3.78;1.80;;;;;;;33.14;36.22;101260.44;5038775;28;20067;-71
2023/08/14 08:56:36;;;;;;;3.38;1.95;;;;;;;32.85;36.43;101258.16;5042195;28;20420;-70
2023/08/14 08:59:03;;;;;;;5.00;1.80;;;;;;;32.97;37.79;101254.56;5034416;28;20022;-70
2023/08/14 09:01:29;;;;;;;2.97;1.40;;;;;;;33.47;37.61;101251.25;5056314;28;20028;-70
2023/08/14 09:03:55;;;;;;;4.15;1.83;;;;;;;33.92;36.20;101251.22;5037953;28;20029;-70
2023/08/14 09:06:21;;;;;;;4.50;1.67;;;;;;;34.22;34.69;101250.59;5035597;28;20032;-70
2023/08/14 09:08:46;;;;;;;3.30;1.60;;;;;;;34.19;34.11;101244.44;5055014;28;20446;-69
2023/08/14 09:11:11;;;;;;;3.63;1.70;;;;;;;34.61;33.44;101254.97;5040104;28;20678;-70
2023/08/14 09:13:37;;;;;;;2.38;1.50;;;;;;;34.69;32.02;101247.22;5032572;28;20315;-70
2023/08/14 09:16:03;;;;;;;4.53;1.60;;;;;;;34.63;31.49;101247.31;5036787;28;20044;-70
2023/08/14 09:18:30;;;;;;;4.50;1.70;;;;;;;34.63;32.67;101250.91;5037960;28;20074;-71
2023/08/14 09:20:57;;;;;;;3.53;1.60;;;;;;;34.56;31.79;101243.75;5035084;28;20025;-71
2023/08/14 09:23:22;;;;;;;2.70;1.50;;;;;;;35.12;31.93;101246.38;5036696;28;20035;-71
2023/08/14 09:25:49;;;;;;;7.63;1.83;;;;;;;35.56;31.38;101243.50;5034315;28;20017;-71
2023/08/14 09:28:17;;;;;;;4.80;1.83;;;;;;;35.63;30.95;101250.66;5040221;28;20041;-70
2023/08/14 09:30:46;;;;;;;3.53;1.60;;;;;;;36.33;30.05;101255.59;5040680;28;20043;-71
2023/08/14 09:33:12;;;;;;;3.22;1.42;;;;;;;36.81;30.32;101246.22;5038471;28;20032;-70
2023/08/14 09:35:39;;;;;;;5.82;1.45;;;;;;;37.18;29.17;101261.75;5038159;28;20025;-71
2023/08/14 09:38:05;;;;;;;5.10;1.73;;;;;;;37.31;27.62;101262.31;5035744;28;20029;-71
2023/08/14 09:40:31;;;;;;;4.75;1.70;;;;;;;37.17;27.96;101272.03;5038069;28;20028;-68
2023/08/14 09:42:57;;;;;;;3.60;1.70;;;;;;;37.03;27.65;101270.59;5039046;28;20039;-69
2023/08/14 09:45:27;;;;;;;3.75;1.65;;;;;;;36.84;28.50;101272.63;5038340;28;20028;-69
2023/08/14 09:47:57;;;;;;;3.38;1.42;;;;;;;36.73;28.41;101267.94;5036826;28;20017;-69
2023/08/14 09:50:27;;;;;;;2.60;1.35;;;;;;;36.37;28.40;101272.56;5035855;28;20072;-69
2023/08/14 09:52:59;;;;;;;4.32;1.65;;;;;;;37.12;27.89;101266.34;5038590;28;20025;-69
2023/08/14 09:55:28;;;;;;;2.53;1.40;;;;;;;37.66;27.00;101261.38;5036256;28;20573;-70
2023/08/14 09:57:57;;;;;;;3.05;1.35;;;;;;;38.23;25.17;101257.72;5046973;28;20232;-69
2023/08/14 10:00:29;;;;;;;4.20;2.00;;;;;;;38.62;25.25;101259.50;5039288;28;20043;-69
2023/08/14 10:02:56;;;;;;;3.13;1.70;;;;;;;39.37;24.65;101246.13;5041486;28;20205;-70
2023/08/14 10:05:23;;;;;;;3.05;1.33;;;;;;;39.65;23.74;101242.25;5042556;28;20029;-70
2023/08/14 10:07:50;;;;;;;3.55;1.90;;;;;;;39.14;24.63;101240.81;5044033;28;20278;-69
2023/08/14 10:10:18;;;;;;;4.18;1.38;;;;;;;38.79;24.54;101239.19;5046841;28;20061;-69
2023/08/14 10:13:05;;;;;;;4.05;1.40;;;;;;;36.36;28.21;101232.91;5044535;28;20066;-70
2023/08/14 10:15:42;;;;;;;3.10;1.50;;;;;;;34.68;30.27;101231.72;5037170;28;20033;-70
2023/08/14 10:18:13;;;;;;;5.00;1.60;;;;;;;35.87;28.70;101214.75;5043085;28;20033;-70
2023/08/14 10:20:41;;;;;;;4.75;1.73;;;;;;;36.65;28.14;101217.28;5044452;28;20032;-70
2023/08/14 10:23:08;;;;;;;2.53;1.60;;;;;;;37.27;26.85;101211.16;5037126;28;20136;-71
2023/08/14 10:25:38;;;;;;;2.85;1.45;;;;;;;38.18;25.79;101213.19;5042605;28;20104;-70
2023/08/14 10:28:07;;;;;;;4.65;1.58;;;;;;;38.69;24.82;101200.09;5041435;28;20103;-71
2023/08/14 10:30:34;;;;;;;3.38;1.60;;;;;;;39.46;23.80;101199.97;5038565;28;20166;-71
2023/08/14 10:33:01;;;;;;;3.13;1.60;;;;;;;39.72;23.43;101197.53;5044090;28;20475;-70
2023/08/14 10:35:26;;;;;;;4.72;1.90;;;;;;;40.42;22.71;101196.44;5040978;28;20491;-69
2023/08/14 10:37:52;;;;;;;3.92;1.67;;;;;;;40.56;21.63;101203.25;5042529;28;20241;-70
2023/08/14 10:40:17;;;;;;;3.65;1.52;;;;;;;40.11;22.73;101189.81;5041035;28;20029;-70
2023/08/14 10:42:56;;;;;;;2.67;1.50;;;;;;;40.23;23.86;101181.25;5037909;28;20483;-70
2023/08/14 10:45:24;;;;;;;2.33;1.65;;;;;;;40.32;22.33;101177.69;5033582;28;20546;-70
2023/08/14 10:47:50;;;;;;;4.32;1.70;;;;;;;40.70;22.13;101186.88;5039007;28;20043;-70
2023/08/14 10:50:20;;;;;;;3.65;1.73;;;;;;;41.19;22.27;101188.53;5036186;28;20380;-70
2023/08/14 10:52:56;;;;;;;2.65;1.50;;;;;;;41.67;22.07;101192.00;5045240;28;20184;-70
2023/08/14 10:55:37;;;;;;;4.95;1.70;;;;;;;41.39;21.30;101191.41;5036641;28;20067;-70
2023/08/14 10:58:28;;;;;;;3.85;1.70;;;;;;;42.19;22.23;101188.13;5038690;28;20076;-70
2023/08/14 11:00:54;;;;;;;4.78;1.75;;;;;;;42.61;21.14;101192.56;5032547;28;20048;-69
2023/08/14 11:03:20;;;;;;;4.63;3.40;;;;;;;42.19;20.55;101190.94;5032836;28;20534;-70
2023/08/14 11:05:45;;;;;;;3.72;1.83;;;;;;;42.20;20.79;101193.44;5036493;28;20020;-70
2023/08/14 11:08:12;;;;;;;3.65;1.38;;;;;;;42.52;19.82;101198.75;5035004;28;20036;-70
2023/08/14 11:10:39;;;;;;;3.95;1.80;;;;;;;42.64;20.68;101203.19;5034369;28;20112;-70
2023/08/14 11:13:09;;;;;;;4.03;1.90;;;;;;;42.70;20.11;101199.28;5037850;28;20059;-70
2023/08/14 11:15:36;;;;;;;3.75;1.42;;;;;;;42.85;19.62;101201.19;5033626;28;20341;-71